createdAt,value
2018-11-03T00:00:47.431Z,9.23
2018-11-03T00:03:17.019Z,8.67
2018-11-03T00:05:47.156Z,10.27
2018-11-03T00:08:17.301Z,9.53
2018-11-03T00:10:47.295Z,9.07
2018-11-03T00:13:16.574Z,9.80
2018-11-03T00:15:48.792Z,9.67
2018-11-03T00:18:20.802Z,9.57
2018-11-03T00:20:50.342Z,10.43
2018-11-03T00:23:20.227Z,8.70
2018-11-03T00:25:50.536Z,9.03
2018-11-03T00:28:19.982Z,8.43
2018-11-03T00:30:50.031Z,11.53
2018-11-03T00:33:19.495Z,11.12
2018-11-03T00:35:48.930Z,8.93
2018-11-03T00:38:18.568Z,10.83
2018-11-03T00:40:47.822Z,10.07
2018-11-03T00:43:17.245Z,10.20
2018-11-03T00:45:47.209Z,12.37
2018-11-03T00:48:16.754Z,10.40
2018-11-03T00:50:46.811Z,10.80
2018-11-03T00:53:16.856Z,10.90
2018-11-03T00:55:46.219Z,9.87
2018-11-03T00:58:16.171Z,11.00
2018-11-03T01:00:45.454Z,9.60
2018-11-03T01:03:15.947Z,9.60
2018-11-03T01:05:46.096Z,9.63
2018-11-03T01:08:16.022Z,9.50
2018-11-03T01:10:45.309Z,9.13
2018-11-03T01:13:14.605Z,11.33
2018-11-03T01:15:44.111Z,10.23
2018-11-03T01:18:14.148Z,10.98
2018-11-03T01:20:43.720Z,9.18
2018-11-03T01:23:13.705Z,9.93
2018-11-03T01:25:43.834Z,9.33
2018-11-03T01:28:13.309Z,10.27
2018-11-03T01:30:42.999Z,9.58
2018-11-03T01:33:13.275Z,9.33
2018-11-03T01:35:42.809Z,9.83
2018-11-03T01:38:12.330Z,10.17
2018-11-03T01:40:42.033Z,9.78
2018-11-03T01:43:12.126Z,10.43
2018-11-03T01:45:41.654Z,9.37
2018-11-03T01:48:11.177Z,11.45
2018-11-03T01:50:41.094Z,9.47
2018-11-03T01:53:10.979Z,9.30
2018-11-03T01:55:41.061Z,10.80
2018-11-03T01:58:10.972Z,10.17
2018-11-03T02:00:40.547Z,10.17
2018-11-03T02:03:10.242Z,10.55
2018-11-03T02:05:39.793Z,11.25
2018-11-03T02:08:09.846Z,11.00
2018-11-03T02:10:39.415Z,11.50
2018-11-03T02:13:09.761Z,9.50
2018-11-03T02:15:39.066Z,9.50
2018-11-03T02:18:08.506Z,9.90
2018-11-03T02:20:38.257Z,9.93
2018-11-03T02:23:07.469Z,9.63
2018-11-03T02:25:37.036Z,11.77
2018-11-03T02:28:07.048Z,13.98
2018-11-03T02:30:36.923Z,14.07
2018-11-03T02:33:06.374Z,13.50
2018-11-03T02:35:35.963Z,10.10
2018-11-03T02:38:05.693Z,11.22
2018-11-03T02:40:35.302Z,12.10
2018-11-03T02:43:05.187Z,11.57
2018-11-03T02:45:35.663Z,12.60
2018-11-03T02:48:05.486Z,11.18
2018-11-03T02:50:35.138Z,11.03
2018-11-03T02:53:05.088Z,13.40
2018-11-03T02:55:35.558Z,11.93
2018-11-03T02:58:05.750Z,10.23
2018-11-03T03:00:35.203Z,10.33
2018-11-03T03:03:05.395Z,11.22
2018-11-03T03:05:34.813Z,11.57
2018-11-03T03:08:05.153Z,10.90
2018-11-03T03:10:34.625Z,12.03
2018-11-03T03:13:04.751Z,12.15
2018-11-03T03:15:34.055Z,12.20
2018-11-03T03:18:04.156Z,11.18
2018-11-03T03:20:33.511Z,14.90
2018-11-03T03:23:03.623Z,11.75
2018-11-03T03:25:32.898Z,11.07
2018-11-03T03:28:02.651Z,13.88
2018-11-03T03:30:32.807Z,12.20
2018-11-03T03:33:02.497Z,11.27
2018-11-03T03:35:32.467Z,11.20
2018-11-03T03:38:01.821Z,11.18
2018-11-03T03:40:31.587Z,10.50
2018-11-03T03:43:01.952Z,11.33
2018-11-03T03:45:31.247Z,12.57
2018-11-03T03:48:01.278Z,11.80
2018-11-03T03:50:31.030Z,10.33
2018-11-03T03:53:00.748Z,10.53
2018-11-03T03:55:30.452Z,11.00
2018-11-03T03:58:00.607Z,12.05
2018-11-03T04:00:30.271Z,10.33
2018-11-03T04:02:59.835Z,11.38
2018-11-03T04:05:29.498Z,11.30
2018-11-03T04:07:59.235Z,9.30
2018-11-03T04:10:28.702Z,9.98
2018-11-03T04:12:58.738Z,10.95
2018-11-03T04:15:28.591Z,12.20
2018-11-03T04:17:59.310Z,11.73
2018-11-03T04:20:29.413Z,12.30
2018-11-03T04:22:59.507Z,13.90
2018-11-03T04:25:29.040Z,13.68
2018-11-03T04:27:58.711Z,13.43
2018-11-03T04:30:28.310Z,11.68
2018-11-03T04:32:57.765Z,13.30
2018-11-03T04:35:27.464Z,11.80
2018-11-03T04:37:56.959Z,14.45
2018-11-03T04:40:26.647Z,13.28
2018-11-03T04:42:56.499Z,13.25
2018-11-03T04:45:26.167Z,11.97
2018-11-03T04:47:55.334Z,11.40
2018-11-03T04:50:25.926Z,11.45
2018-11-03T04:52:55.218Z,13.15
2018-11-03T04:55:25.169Z,12.28
2018-11-03T04:57:54.456Z,10.63
2018-11-03T05:00:23.881Z,11.25
2018-11-03T05:02:53.850Z,11.93
2018-11-03T05:05:23.355Z,12.30
2018-11-03T05:07:53.510Z,13.38
2018-11-03T05:10:23.764Z,12.15
2018-11-03T05:12:53.839Z,11.53
2018-11-03T05:15:23.411Z,13.70
2018-11-03T05:17:53.111Z,12.95
2018-11-03T05:20:22.610Z,13.20
2018-11-03T05:22:52.731Z,11.05
2018-11-03T05:25:22.467Z,11.53
2018-11-03T05:27:52.975Z,11.73
2018-11-03T05:30:22.307Z,9.90
2018-11-03T05:32:52.561Z,11.85
2018-11-03T05:35:22.959Z,10.43
2018-11-03T05:37:52.682Z,11.28
2018-11-03T05:40:22.410Z,10.50
2018-11-03T05:42:52.106Z,13.22
2018-11-03T05:45:22.259Z,11.35
2018-11-03T05:47:52.146Z,10.98
2018-11-03T05:50:21.444Z,11.40
2018-11-03T05:52:50.757Z,12.10
2018-11-03T05:55:20.293Z,11.55
2018-11-03T05:57:49.703Z,11.85
2018-11-03T06:00:19.688Z,10.90
2018-11-03T06:02:49.115Z,13.03
2018-11-03T06:05:19.009Z,12.70
2018-11-03T06:07:48.571Z,11.18
2018-11-03T06:10:18.688Z,10.82
2018-11-03T06:12:48.787Z,11.12
2018-11-03T06:15:18.806Z,13.10
2018-11-03T06:17:48.206Z,14.47
2018-11-03T06:20:17.731Z,10.40
2018-11-03T06:22:47.276Z,10.53
2018-11-03T06:25:16.488Z,11.45
2018-11-03T06:27:46.155Z,10.60
2018-11-03T06:30:15.507Z,11.38
2018-11-03T06:32:44.834Z,11.15
2018-11-03T06:35:15.059Z,10.93
2018-11-03T06:37:44.663Z,11.35
2018-11-03T06:40:15.164Z,11.55
2018-11-03T06:42:44.694Z,12.25
2018-11-03T06:45:15.212Z,14.18
2018-11-03T06:47:44.706Z,12.85
2018-11-03T06:50:14.404Z,15.10
2018-11-03T06:52:44.202Z,15.43
2018-11-03T06:55:14.011Z,30.57
2018-11-03T06:57:43.552Z,52.17
2018-11-03T07:00:13.109Z,18.10
2018-11-03T07:02:45.568Z,39.48
2018-11-03T07:05:15.218Z,32.58
2018-11-03T07:07:45.487Z,17.77
2018-11-03T07:10:15.226Z,15.15
2018-11-03T07:12:45.168Z,18.35
2018-11-03T07:15:15.049Z,15.58
2018-11-03T07:17:45.348Z,19.23
2018-11-03T07:20:15.059Z,17.40
2018-11-03T07:22:44.598Z,53.42
2018-11-03T07:25:14.096Z,23.65
2018-11-03T07:27:43.900Z,29.42
2018-11-03T07:30:13.284Z,14.38
2018-11-03T07:32:42.771Z,15.13
2018-11-03T07:35:12.321Z,16.67
2018-11-03T07:37:41.576Z,19.10
2018-11-03T07:40:12.331Z,14.03
2018-11-03T07:42:42.230Z,12.20
2018-11-03T07:45:12.611Z,12.37
2018-11-03T07:47:42.647Z,11.80
2018-11-03T07:50:13.043Z,13.18
2018-11-03T07:52:43.248Z,12.03
2018-11-03T07:55:13.687Z,11.30
2018-11-03T07:57:43.151Z,11.73
2018-11-03T08:00:13.972Z,12.33
2018-11-03T08:02:43.608Z,11.07
2018-11-03T08:05:13.122Z,10.60
2018-11-03T08:07:42.590Z,11.73
2018-11-03T08:10:12.684Z,11.30
2018-11-03T08:12:42.418Z,11.43
2018-11-03T08:15:12.954Z,10.27
2018-11-03T08:17:43.286Z,10.73
2018-11-03T08:20:12.975Z,12.73
2018-11-03T08:22:43.530Z,11.10
2018-11-03T08:25:13.647Z,10.77
2018-11-03T08:27:43.186Z,12.00
2018-11-03T08:30:13.978Z,11.07
2018-11-03T08:32:43.875Z,11.63
2018-11-03T08:35:13.952Z,13.10
2018-11-03T08:37:44.018Z,11.93
2018-11-03T08:40:13.873Z,11.33
2018-11-03T08:42:43.916Z,12.43
2018-11-03T08:45:13.431Z,12.80
2018-11-03T08:47:42.905Z,11.97
2018-11-03T08:50:13.453Z,35.80
2018-11-03T08:52:43.162Z,13.07
2018-11-03T08:55:13.703Z,11.53
2018-11-03T08:57:44.040Z,11.37
2018-11-03T09:00:15.185Z,12.27
2018-11-03T09:02:44.877Z,11.03
2018-11-03T09:05:14.186Z,12.57
2018-11-03T09:07:44.119Z,12.73
2018-11-03T09:10:14.854Z,11.83
2018-11-03T09:12:44.710Z,12.40
2018-11-03T09:15:15.359Z,12.40
2018-11-03T09:17:45.599Z,11.90
2018-11-03T09:20:15.139Z,11.93
2018-11-03T09:22:44.797Z,12.57
2018-11-03T09:25:15.542Z,13.23
2018-11-03T09:27:45.720Z,12.50
2018-11-03T09:30:18.546Z,13.23
2018-11-03T09:32:48.301Z,14.67
2018-11-03T09:35:18.425Z,15.23
2018-11-03T09:37:48.548Z,14.43
2018-11-03T09:40:18.699Z,14.13
2018-11-03T09:42:48.909Z,13.73
2018-11-03T09:45:19.114Z,15.13
2018-11-03T09:47:49.446Z,15.60
2018-11-03T09:50:19.199Z,17.23
2018-11-03T09:52:48.947Z,16.57
2018-11-03T09:55:20.303Z,17.67
2018-11-03T09:57:50.159Z,16.60
2018-11-03T10:00:21.279Z,16.33
2018-11-03T10:02:50.785Z,16.37
2018-11-03T10:05:20.916Z,16.20
2018-11-03T10:07:51.002Z,17.63
2018-11-03T10:10:21.104Z,17.30
2018-11-03T10:12:50.652Z,17.03
2018-11-03T10:15:20.875Z,17.70
2018-11-03T10:17:50.476Z,17.30
2018-11-03T10:20:20.162Z,17.90
2018-11-03T10:22:49.481Z,17.37
2018-11-03T10:25:20.268Z,18.73
2018-11-03T10:27:49.703Z,18.17
2018-11-03T10:30:20.288Z,16.77
2018-11-03T10:32:49.983Z,18.40
2018-11-03T10:35:20.147Z,17.47
2018-11-03T10:37:49.839Z,17.67
2018-11-03T10:40:19.690Z,17.53
2018-11-03T10:42:49.499Z,17.53
2018-11-03T10:45:19.205Z,17.00
2018-11-03T10:47:49.078Z,16.77
2018-11-03T10:50:19.611Z,15.97
2018-11-03T10:52:49.246Z,16.37
2018-11-03T10:55:20.248Z,15.67
2018-11-03T10:57:50.127Z,14.87
2018-11-03T11:00:25.907Z,13.67
2018-11-03T11:03:01.557Z,13.77
2018-11-03T11:05:36.551Z,15.07
2018-11-03T11:08:11.770Z,10.97
2018-11-03T11:10:46.650Z,10.60
2018-11-03T11:13:24.662Z,9.00
2018-11-03T11:15:56.569Z,9.50
2018-11-03T11:18:25.714Z,8.53
2018-11-03T11:20:55.391Z,10.13
2018-11-03T11:23:24.915Z,8.20
2018-11-03T11:25:54.435Z,9.23
2018-11-03T11:28:24.843Z,8.93
2018-11-03T11:30:55.887Z,9.23
2018-11-03T11:33:25.342Z,10.93
2018-11-03T11:35:55.550Z,8.57
2018-11-03T11:38:25.390Z,7.23
2018-11-03T11:40:54.759Z,12.17
2018-11-03T11:43:24.175Z,7.17
2018-11-03T11:45:54.470Z,7.47
2018-11-03T11:48:24.156Z,4.73
2018-11-03T11:50:53.568Z,5.57
2018-11-03T11:53:23.234Z,3.20
2018-11-03T11:55:52.959Z,4.60
2018-11-03T11:58:22.468Z,3.03
2018-11-03T12:00:52.130Z,2.93
2018-11-03T12:03:21.915Z,3.60
2018-11-03T12:05:51.659Z,3.40
2018-11-03T12:08:22.151Z,3.53
2018-11-03T12:10:52.263Z,3.80
2018-11-03T12:13:22.394Z,3.83
2018-11-03T12:15:51.871Z,6.50
2018-11-03T12:18:22.039Z,6.50
2018-11-03T12:20:51.579Z,8.47
2018-11-03T12:23:21.029Z,8.07
2018-11-03T12:25:50.588Z,7.80
2018-11-03T12:28:20.264Z,6.20
2018-11-03T12:30:50.170Z,6.00
2018-11-03T12:33:19.651Z,5.50
2018-11-03T12:35:49.116Z,7.60
2018-11-03T12:38:18.642Z,4.13
2018-11-03T12:40:48.019Z,3.93
2018-11-03T12:43:18.100Z,3.57
2018-11-03T12:45:47.925Z,4.53
2018-11-03T12:48:17.862Z,5.07
2018-11-03T12:50:47.643Z,4.30
2018-11-03T12:53:16.885Z,4.53
2018-11-03T12:55:47.025Z,6.03
2018-11-03T12:58:16.529Z,5.20
2018-11-03T13:00:46.036Z,5.33
2018-11-03T13:03:15.775Z,4.27
2018-11-03T13:05:45.470Z,5.47
2018-11-03T13:08:15.166Z,3.97
2018-11-03T13:10:45.066Z,5.37
2018-11-03T13:13:15.198Z,4.13
2018-11-03T13:15:44.749Z,5.30
2018-11-03T13:18:14.764Z,4.07
2018-11-03T13:20:44.324Z,5.03
2018-11-03T13:23:13.572Z,3.33
2018-11-03T13:25:42.955Z,3.90
2018-11-03T13:28:12.832Z,3.13
2018-11-03T13:30:42.924Z,4.37
2018-11-03T13:33:12.938Z,3.90
2018-11-03T13:35:42.820Z,3.17
2018-11-03T13:38:12.235Z,3.53
2018-11-03T13:40:41.850Z,4.70
2018-11-03T13:43:12.195Z,3.53
2018-11-03T13:45:41.999Z,2.90
2018-11-03T13:48:11.575Z,3.47
2018-11-03T13:50:41.293Z,4.20
2018-11-03T13:53:11.009Z,4.30
2018-11-03T13:55:40.751Z,2.60
2018-11-03T13:58:10.047Z,3.47
2018-11-03T14:00:39.483Z,3.40
2018-11-03T14:03:08.998Z,3.40
2018-11-03T14:05:42.832Z,2.60
2018-11-03T14:08:12.306Z,3.23
2018-11-03T14:10:42.395Z,3.23
2018-11-03T14:13:12.136Z,3.00
2018-11-03T14:15:41.630Z,3.47
2018-11-03T14:18:11.148Z,2.77
2018-11-03T14:20:41.090Z,2.90
2018-11-03T14:23:10.572Z,2.67
2018-11-03T14:25:40.732Z,3.63
2018-11-03T14:28:10.718Z,3.13
2018-11-03T14:30:41.047Z,3.00
2018-11-03T14:33:11.286Z,3.37
2018-11-03T14:35:41.281Z,4.90
2018-11-03T14:38:11.696Z,6.47
2018-11-03T14:40:41.863Z,4.13
2018-11-03T14:43:12.118Z,5.07
2018-11-03T14:45:42.512Z,3.63
2018-11-03T14:48:11.759Z,3.87
2018-11-03T14:50:41.602Z,3.90
2018-11-03T14:53:11.820Z,4.33
2018-11-03T14:55:43.138Z,4.07
2018-11-03T14:58:13.528Z,4.93
2018-11-03T15:00:44.235Z,5.60
2018-11-03T15:03:14.718Z,4.43
2018-11-03T15:05:47.000Z,4.60
2018-11-03T15:08:18.279Z,4.20
2018-11-03T15:10:52.338Z,4.00
2018-11-03T15:13:23.673Z,4.73
2018-11-03T15:15:55.534Z,3.97
2018-11-03T15:18:27.011Z,4.77
2018-11-03T15:20:58.207Z,4.93
2018-11-03T15:23:30.203Z,5.83
2018-11-03T15:26:03.247Z,4.87
2018-11-03T15:28:34.719Z,5.07
2018-11-03T15:31:06.502Z,4.47
2018-11-03T15:33:38.235Z,4.13
2018-11-03T15:36:09.541Z,7.13
2018-11-03T15:38:41.116Z,4.07
2018-11-03T15:41:12.645Z,3.80
2018-11-03T15:43:43.963Z,3.80
2018-11-03T15:46:15.484Z,5.87
2018-11-03T15:48:46.806Z,5.13
2018-11-03T15:51:18.375Z,3.97
2018-11-03T15:53:51.411Z,4.87
2018-11-03T15:56:22.638Z,5.33
2018-11-03T15:58:54.657Z,3.97
2018-11-03T16:01:26.457Z,6.70
2018-11-03T16:03:59.182Z,5.73
2018-11-03T16:06:34.611Z,5.60
2018-11-03T16:09:10.147Z,5.67
2018-11-03T16:11:41.713Z,4.83
2018-11-03T16:14:13.276Z,4.57
2018-11-03T16:16:45.669Z,4.17
2018-11-03T16:19:22.863Z,5.20
2018-11-03T16:21:56.149Z,4.33
2018-11-03T16:24:28.327Z,4.40
2018-11-03T16:26:59.622Z,4.27
2018-11-03T16:29:31.190Z,4.13
2018-11-03T16:32:02.592Z,6.00
2018-11-03T16:34:34.351Z,4.90
2018-11-03T16:37:06.474Z,4.87
2018-11-03T16:39:38.998Z,6.40
2018-11-03T16:42:10.415Z,7.23
2018-11-03T16:44:40.201Z,5.23
2018-11-03T16:47:09.734Z,5.67
2018-11-03T16:49:39.096Z,24.53
2018-11-03T16:52:09.112Z,84.33
2018-11-03T16:54:39.070Z,41.77
2018-11-03T16:57:08.689Z,37.00
2018-11-03T16:59:38.495Z,24.80
2018-11-03T17:02:08.447Z,23.03
2018-11-03T17:04:38.326Z,15.43
2018-11-03T17:07:07.627Z,12.13
2018-11-03T17:09:37.759Z,7.83
2018-11-03T17:12:07.838Z,5.73
2018-11-03T17:14:37.473Z,6.47
2018-11-03T17:17:07.421Z,8.40
2018-11-03T17:19:36.938Z,10.00
2018-11-03T17:22:06.685Z,9.33
2018-11-03T17:24:36.172Z,14.80
2018-11-03T17:27:06.090Z,14.77
2018-11-03T17:29:35.547Z,16.20
2018-11-03T17:32:05.696Z,15.63
2018-11-03T17:34:35.004Z,14.47
2018-11-03T17:37:04.964Z,16.07
2018-11-03T17:39:34.378Z,10.90
2018-11-03T17:42:04.290Z,9.33
2018-11-03T17:44:34.485Z,8.30
2018-11-03T17:47:04.000Z,15.27
2018-11-03T17:49:34.089Z,14.03
2018-11-03T17:52:03.630Z,22.37
2018-11-03T17:54:33.517Z,14.10
2018-11-03T17:57:03.627Z,11.87
2018-11-03T17:59:33.132Z,9.07
2018-11-03T18:02:03.196Z,8.83
2018-11-03T18:04:33.389Z,11.10
2018-11-03T18:07:03.659Z,10.97
2018-11-03T18:09:33.216Z,7.87
2018-11-03T18:12:03.558Z,7.93
2018-11-03T18:14:33.216Z,9.50
2018-11-03T18:17:03.188Z,7.60
2018-11-03T18:19:32.528Z,9.77
2018-11-03T18:22:02.572Z,8.00
2018-11-03T18:24:31.918Z,10.10
2018-11-03T18:27:01.179Z,7.93
2018-11-03T18:29:30.467Z,8.80
2018-11-03T18:32:00.327Z,15.23
2018-11-03T18:34:30.528Z,18.93
2018-11-03T18:37:00.446Z,22.80
2018-11-03T18:39:30.168Z,15.77
2018-11-03T18:41:59.768Z,13.30
2018-11-03T18:44:29.545Z,14.00
2018-11-03T18:46:59.057Z,23.27
2018-11-03T18:49:30.062Z,13.20
2018-11-03T18:51:59.462Z,10.50
2018-11-03T18:54:29.747Z,12.67
2018-11-03T18:56:59.577Z,11.27
2018-11-03T18:59:29.211Z,13.60
2018-11-03T19:01:58.735Z,14.43
2018-11-03T19:04:28.250Z,12.93
2018-11-03T19:06:57.719Z,12.97
2018-11-03T19:09:27.668Z,13.87
2018-11-03T19:11:56.984Z,13.43
2018-11-03T19:14:26.744Z,12.47
2018-11-03T19:16:56.395Z,10.50
2018-11-03T19:19:25.906Z,11.93
2018-11-03T19:21:56.033Z,11.03
2018-11-03T19:24:25.368Z,11.87
2018-11-03T19:26:55.467Z,10.73
2018-11-03T19:29:24.793Z,12.73
2018-11-03T19:31:54.282Z,10.87
2018-11-03T19:34:24.208Z,11.97
2018-11-03T19:36:53.451Z,12.00
2018-11-03T19:39:23.285Z,16.10
2018-11-03T19:41:52.856Z,15.40
2018-11-03T19:44:22.887Z,16.07
2018-11-03T19:46:52.626Z,16.30
2018-11-03T19:49:22.448Z,13.73
2018-11-03T19:51:51.920Z,17.23
2018-11-03T19:54:21.867Z,17.90
2018-11-03T19:56:51.099Z,15.90
2018-11-03T19:59:21.030Z,20.80
2018-11-03T20:01:50.519Z,21.70
2018-11-03T20:04:20.075Z,18.93
2018-11-03T20:06:49.551Z,23.20
2018-11-03T20:09:18.857Z,14.80
2018-11-03T20:11:48.768Z,13.10
2018-11-03T20:14:18.463Z,15.60
2018-11-03T20:16:47.962Z,15.27
2018-11-03T20:19:17.716Z,17.23
2018-11-03T20:21:47.022Z,18.37
2018-11-03T20:24:17.147Z,16.27
2018-11-03T20:26:47.033Z,18.77
2018-11-03T20:29:17.524Z,18.90
2018-11-03T20:31:46.829Z,19.23
2018-11-03T20:34:16.899Z,16.57
2018-11-03T20:36:46.498Z,18.47
2018-11-03T20:39:16.022Z,18.32
2018-11-03T20:41:45.803Z,16.53
2018-11-03T20:44:16.292Z,18.07
2018-11-03T20:46:45.571Z,14.43
2018-11-03T20:49:15.679Z,15.17
2018-11-03T20:51:45.268Z,16.03
2018-11-03T20:54:15.016Z,17.23
2018-11-03T20:56:45.244Z,15.70
2018-11-03T20:59:15.086Z,17.75
2018-11-03T21:01:44.856Z,16.83
2018-11-03T21:04:14.748Z,15.87
2018-11-03T21:06:44.654Z,17.43
2018-11-03T21:09:14.163Z,15.73
2018-11-03T21:11:43.843Z,17.77
2018-11-03T21:14:13.203Z,16.20
2018-11-03T21:16:43.529Z,17.05
2018-11-03T21:19:13.602Z,17.50
2018-11-03T21:21:43.314Z,17.40
2018-11-03T21:24:13.283Z,16.20
2018-11-03T21:26:42.487Z,15.17
2018-11-03T21:29:12.226Z,17.07
2018-11-03T21:31:41.992Z,15.78
2018-11-03T21:34:11.892Z,17.20
2018-11-03T21:36:41.139Z,17.90
2018-11-03T21:39:12.000Z,15.70
2018-11-03T21:41:41.252Z,14.93
2018-11-03T21:44:11.141Z,17.73
2018-11-03T21:46:40.724Z,14.80
2018-11-03T21:49:11.995Z,15.77
2018-11-03T21:51:41.434Z,16.57
2018-11-03T21:54:10.998Z,15.13
2018-11-03T21:56:40.514Z,16.27
2018-11-03T21:59:10.210Z,27.13
2018-11-03T22:01:40.584Z,29.37
2018-11-03T22:04:10.238Z,44.37
2018-11-03T22:06:40.379Z,89.90
2018-11-03T22:09:11.923Z,69.33
2018-11-03T22:11:41.843Z,52.37
2018-11-03T22:14:12.536Z,44.43
2018-11-03T22:16:42.048Z,42.00
2018-11-03T22:19:11.833Z,36.47
2018-11-03T22:21:41.385Z,17.53
2018-11-03T22:24:10.794Z,15.53
2018-11-03T22:26:40.330Z,15.17
2018-11-03T22:29:09.902Z,14.47
2018-11-03T22:31:39.875Z,15.97
2018-11-03T22:34:09.834Z,16.55
2018-11-03T22:36:39.235Z,17.83
2018-11-03T22:39:09.433Z,16.77
2018-11-03T22:41:39.813Z,17.20
2018-11-03T22:44:09.617Z,16.67
2018-11-03T22:46:40.220Z,15.28
2018-11-03T22:49:10.349Z,15.87
2018-11-03T22:51:40.230Z,16.17
2018-11-03T22:54:09.555Z,16.70
2018-11-03T22:56:39.572Z,15.77
2018-11-03T22:59:09.397Z,17.00
2018-11-03T23:01:38.845Z,15.10
2018-11-03T23:04:08.559Z,16.87
2018-11-03T23:06:38.050Z,15.32
2018-11-03T23:09:07.999Z,15.17
2018-11-03T23:11:37.689Z,16.87
2018-11-03T23:14:07.804Z,16.27
2018-11-03T23:16:37.751Z,15.23
2018-11-03T23:19:07.553Z,17.90
2018-11-03T23:21:36.910Z,16.10
2018-11-03T23:24:09.356Z,15.77
2018-11-03T23:26:41.868Z,15.00
2018-11-03T23:29:13.720Z,16.65
2018-11-03T23:31:46.398Z,16.10
2018-11-03T23:34:18.980Z,19.12
2018-11-03T23:36:51.712Z,17.00
2018-11-03T23:39:23.904Z,16.10
2018-11-03T23:41:55.472Z,16.77
2018-11-03T23:44:27.149Z,16.00
2018-11-03T23:46:59.493Z,15.57
2018-11-03T23:49:31.747Z,16.73
2018-11-03T23:52:07.648Z,16.10
2018-11-03T23:54:39.577Z,17.47
2018-11-03T23:57:12.227Z,17.42
2018-11-03T23:59:44.917Z,17.05
